KEUGKOTH

Guest
Details From KEUG - Mahlon Sweet Fld
To KOTH - North Bend Muni
Flight Number -
Tags Generated
Created
Modified
Stats Distance 61 nm / 112 km
Max Altitude 0 ft / 0 m
Waypoints 2
Social Downloads 3
Likes 0
Share VATSIM

Download

Looking for another format? Having issues loading an existing format? Contact us
Advertisement - Login to hide

Notes

Generated

Route

KEUG KOTH

ID Type Via Altitude Latitude Longitude Leg Dist Tot Dist Heading (true) Name
O KEUG APT - 0 ft / 0 m 44.11651˚ -123.22546˚ - 0 nm - -
O KOTH APT - 0 ft / 0 m 43.42248˚ -124.24031˚ 60 nm 60 nm 227° / 226° North Bend Muni

Altitude Profile

Advertisement - Login to hide

KEUG

Details ICAO KEUG (EUG)
Name Mahlon Sweet Fld
Region United States
Timezone America/Los_Angeles (UTC-8.0)
Stats Elevation 374 ft / 114 m (AMSL)
Location 44.123538° -123.213262°
Runways 3
Magnetic Variation 15.052° E

METAR

KEUG 161854Z 17003KT 9SM BKN036 BKN090 OVC130 04/03 A3041 RMK AO2 SLP302 T00390033

Decode

TAF

KEUG 161749Z 1618/1718 15005KT P6SM SCT035 BKN050 FM162300 20004KT P6SM SCT015 OVC050 FM170700 17004KT 2SM BR BKN002

Decode

Departure Runways

ID Width Length Bearing (true) Bearing (mag) Surface Threshold Offset Overrun Length
03 150 ft / 46 m 5,223 ft / 1,592 m 46.77° 31.72° Asphalt 0 ft / 0 m 0 ft / 0 m
16L 150 ft / 46 m 6,005 ft / 1,830 m 179.39° 164.34° Asphalt 0 ft / 0 m 0 ft / 0 m
16R 150 ft / 46 m 8,017 ft / 2,444 m 179.38° 164.33° Asphalt 0 ft / 0 m 0 ft / 0 m
21 150 ft / 46 m 5,223 ft / 1,592 m 226.78° 211.73° Asphalt 0 ft / 0 m 0 ft / 0 m
34L 150 ft / 46 m 8,017 ft / 2,444 m 359.38° 344.33° Asphalt 0 ft / 0 m 0 ft / 0 m
34R 150 ft / 46 m 6,005 ft / 1,830 m 359.39° 344.34° Asphalt 0 ft / 0 m 0 ft / 0 m

KOTH

Details ICAO KOTH (OTH)
Name North Bend Muni
Region United States
Timezone America/Los_Angeles (UTC-8.0)
Stats Elevation 17 ft / 5 m (AMSL)
Location 43.417379° -124.244722°
Runways 3
Magnetic Variation 15.040° E

METAR

KOTH 161856Z 12004KT 10SM BR OVC100 06/04 A3041 RMK AO2 SLP298 T00560039

Decode

TAF

KOTH 161734Z 1618/1718 14006KT P6SM SCT050 FM162100 07005KT P6SM FEW110 FM171200 VRB03KT 6SM BR BKN070

Decode

Destination Runways

ID Width Length Bearing (true) Bearing (mag) Surface Threshold Offset Overrun Length
04 150 ft / 46 m 5,312 ft / 1,619 m 60.58° 45.54° Asphalt 0 ft / 0 m 0 ft / 0 m
13 150 ft / 46 m 4,472 ft / 1,363 m 149.71° 134.67° Asphalt 0 ft / 0 m 0 ft / 0 m
16 150 ft / 46 m 2,324 ft / 708 m 179.29° 164.25° Asphalt 0 ft / 0 m 350 ft / 107 m
22 150 ft / 46 m 5,312 ft / 1,619 m 240.59° 225.55° Asphalt 0 ft / 0 m 1,000 ft / 305 m
31 150 ft / 46 m 4,472 ft / 1,363 m 329.72° 314.68° Asphalt 0 ft / 0 m 0 ft / 0 m
34 150 ft / 46 m 2,324 ft / 708 m 359.29° 344.25° Asphalt 0 ft / 0 m 0 ft / 0 m

Approach Navaids

Runway Type Ident Frequency Range Bearing (true) Bearing (mag) Slope Elevation
04 Localiser IOTH 108.50 MHz 18 nm / 33 km 60.59° 45.55° - 11 ft / 3 m (AMSL)
04 Glidescope IOTH 108.50 MHz 10 nm / 19 km 60.59° 45.55° 3.00° 14 ft / 4 m (AMSL)